Evans, Washington
Current Conditions -  °F | °C
As of 9:00 PM on Saturday 25 Oct 2014 (Local Time) from CYCG Reporting Station
Rain Showers Rain Showers  
Wind Chill:   Ceiling: 4500
Heat Index:   Visibility: 15mi
Dew Point:   Wind: 0mph
Humidity: 93%   Direction: NA
Pressure: 29.51"   Gusts: NA
Location:  48.71°N, 118.03°W
Report Text: CYCG 260400Z 00000KT 15SM -SHRA BKN045 OVC065 08/07 A2951 RMK SC6SC2 LAST OBS/NEXT 261300 UTC SLP003
Loading
Personal Weather Stations






























Interactive Weather Map
Tropical Storm Tracking
New forecast layout! Learn more

10-Day Weather Forecast

Advertisements
Track Severe Weather on mobile